sensor_id;sensor_type;location;lat;lon;timestamp;temperature;humidity
51825;DHT22;37879;52.986;6.282;2023-08-17T00:00:10;15.60;99.90
51825;DHT22;37879;52.986;6.282;2023-08-17T00:02:40;15.60;99.90
51825;DHT22;37879;52.986;6.282;2023-08-17T00:05:06;15.60;99.90
51825;DHT22;37879;52.986;6.282;2023-08-17T00:07:35;15.60;99.90
51825;DHT22;37879;52.986;6.282;2023-08-17T00:10:00;15.60;99.90
51825;DHT22;37879;52.986;6.282;2023-08-17T00:12:26;15.60;99.90
51825;DHT22;37879;52.986;6.282;2023-08-17T00:14:52;15.60;99.90
51825;DHT22;37879;52.986;6.282;2023-08-17T00:17:19;15.70;99.90
51825;DHT22;37879;52.986;6.282;2023-08-17T00:19:44;15.70;99.90
51825;DHT22;37879;52.986;6.282;2023-08-17T00:22:10;15.70;99.90
51825;DHT22;37879;52.986;6.282;2023-08-17T00:24:36;15.70;99.90
51825;DHT22;37879;52.986;6.282;2023-08-17T00:27:02;15.70;99.90
51825;DHT22;37879;52.986;6.282;2023-08-17T00:29:29;15.70;99.90
51825;DHT22;37879;52.986;6.282;2023-08-17T00:31:54;15.80;99.90
51825;DHT22;37879;52.986;6.282;2023-08-17T00:34:20;15.80;99.90
51825;DHT22;37879;52.986;6.282;2023-08-17T00:36:46;15.70;99.90
51825;DHT22;37879;52.986;6.282;2023-08-17T00:39:13;15.80;99.90
51825;DHT22;37879;52.986;6.282;2023-08-17T00:41:40;15.80;99.90
51825;DHT22;37879;52.986;6.282;2023-08-17T00:44:06;15.80;99.90
51825;DHT22;37879;52.986;6.282;2023-08-17T00:46:32;15.80;99.90
51825;DHT22;37879;52.986;6.282;2023-08-17T00:48:58;15.80;99.90
51825;DHT22;37879;52.986;6.282;2023-08-17T00:51:24;15.80;99.90
51825;DHT22;37879;52.986;6.282;2023-08-17T00:53:53;15.80;99.90
51825;DHT22;37879;52.986;6.282;2023-08-17T00:56:20;15.80;99.90
51825;DHT22;37879;52.986;6.282;2023-08-17T00:58:45;15.80;99.90
51825;DHT22;37879;52.986;6.282;2023-08-17T01:01:11;15.80;99.90
51825;DHT22;37879;52.986;6.282;2023-08-17T01:03:39;15.80;99.90
51825;DHT22;37879;52.986;6.282;2023-08-17T01:06:06;15.80;99.90
51825;DHT22;37879;52.986;6.282;2023-08-17T01:08:32;15.70;99.90
51825;DHT22;37879;52.986;6.282;2023-08-17T01:11:29;15.70;99.90
51825;DHT22;37879;52.986;6.282;2023-08-17T01:14:00;15.70;99.90
51825;DHT22;37879;52.986;6.282;2023-08-17T01:16:33;15.70;99.90
51825;DHT22;37879;52.986;6.282;2023-08-17T01:19:00;15.70;99.90
51825;DHT22;37879;52.986;6.282;2023-08-17T01:21:37;15.60;99.90
51825;DHT22;37879;52.986;6.282;2023-08-17T01:24:06;15.60;99.90
51825;DHT22;37879;52.986;6.282;2023-08-17T01:26:33;15.60;99.90
51825;DHT22;37879;52.986;6.282;2023-08-17T01:28:59;15.60;99.90
51825;DHT22;37879;52.986;6.282;2023-08-17T01:31:31;15.60;99.90
51825;DHT22;37879;52.986;6.282;2023-08-17T01:34:08;15.50;99.90
51825;DHT22;37879;52.986;6.282;2023-08-17T01:36:43;15.50;99.90
51825;DHT22;37879;52.986;6.282;2023-08-17T01:39:11;15.50;99.90
51825;DHT22;37879;52.986;6.282;2023-08-17T01:41:38;15.50;99.90
51825;DHT22;37879;52.986;6.282;2023-08-17T01:44:05;15.50;99.90
51825;DHT22;37879;52.986;6.282;2023-08-17T01:46:32;15.40;99.90
51825;DHT22;37879;52.986;6.282;2023-08-17T01:48:58;15.40;99.90
51825;DHT22;37879;52.986;6.282;2023-08-17T01:51:24;15.40;99.90
51825;DHT22;37879;52.986;6.282;2023-08-17T01:53:50;15.40;99.90
51825;DHT22;37879;52.986;6.282;2023-08-17T01:56:16;15.30;99.90
51825;DHT22;37879;52.986;6.282;2023-08-17T01:58:42;15.30;99.90
51825;DHT22;37879;52.986;6.282;2023-08-17T02:01:08;15.30;99.90
51825;DHT22;37879;52.986;6.282;2023-08-17T02:03:34;15.30;99.90
51825;DHT22;37879;52.986;6.282;2023-08-17T02:05:59;15.20;99.90
51825;DHT22;37879;52.986;6.282;2023-08-17T02:08:25;15.20;99.90
51825;DHT22;37879;52.986;6.282;2023-08-17T02:10:51;15.10;99.90
51825;DHT22;37879;52.986;6.282;2023-08-17T02:13:18;15.10;99.90
51825;DHT22;37879;52.986;6.282;2023-08-17T02:15:44;15.00;99.90
51825;DHT22;37879;52.986;6.282;2023-08-17T02:18:10;15.00;99.90
51825;DHT22;37879;52.986;6.282;2023-08-17T02:20:36;15.00;99.90
51825;DHT22;37879;52.986;6.282;2023-08-17T02:23:02;14.90;99.90
51825;DHT22;37879;52.986;6.282;2023-08-17T02:25:27;14.90;99.90
51825;DHT22;37879;52.986;6.282;2023-08-17T02:28:03;14.80;99.90
51825;DHT22;37879;52.986;6.282;2023-08-17T02:30:29;14.80;99.90
51825;DHT22;37879;52.986;6.282;2023-08-17T02:32:55;14.80;99.90
51825;DHT22;37879;52.986;6.282;2023-08-17T02:35:20;14.80;99.90
51825;DHT22;37879;52.986;6.282;2023-08-17T02:37:46;14.80;99.90
51825;DHT22;37879;52.986;6.282;2023-08-17T02:40:12;14.80;99.90
51825;DHT22;37879;52.986;6.282;2023-08-17T02:42:37;14.80;99.90
51825;DHT22;37879;52.986;6.282;2023-08-17T02:45:06;14.70;99.90
51825;DHT22;37879;52.986;6.282;2023-08-17T02:47:32;14.70;99.90
51825;DHT22;37879;52.986;6.282;2023-08-17T02:49:57;14.70;99.90
51825;DHT22;37879;52.986;6.282;2023-08-17T02:52:23;14.70;99.90
51825;DHT22;37879;52.986;6.282;2023-08-17T02:54:49;14.70;99.90
51825;DHT22;37879;52.986;6.282;2023-08-17T02:57:14;14.60;99.90
51825;DHT22;37879;52.986;6.282;2023-08-17T02:59:40;14.60;99.90
51825;DHT22;37879;52.986;6.282;2023-08-17T03:02:06;14.50;99.90
51825;DHT22;37879;52.986;6.282;2023-08-17T03:04:31;14.50;99.90
51825;DHT22;37879;52.986;6.282;2023-08-17T03:06:58;14.50;99.90
51825;DHT22;37879;52.986;6.282;2023-08-17T03:09:23;14.40;99.90
51825;DHT22;37879;52.986;6.282;2023-08-17T03:11:49;14.40;99.90
51825;DHT22;37879;52.986;6.282;2023-08-17T03:14:15;14.30;99.90
51825;DHT22;37879;52.986;6.282;2023-08-17T03:16:41;14.30;99.90
51825;DHT22;37879;52.986;6.282;2023-08-17T03:19:06;14.30;99.90
51825;DHT22;37879;52.986;6.282;2023-08-17T03:21:34;14.40;99.90
51825;DHT22;37879;52.986;6.282;2023-08-17T03:23:59;14.30;99.90
51825;DHT22;37879;52.986;6.282;2023-08-17T03:26:25;14.30;99.90
51825;DHT22;37879;52.986;6.282;2023-08-17T03:28:51;14.30;99.90
51825;DHT22;37879;52.986;6.282;2023-08-17T03:31:16;14.20;99.90
51825;DHT22;37879;52.986;6.282;2023-08-17T03:33:42;14.20;99.90
51825;DHT22;37879;52.986;6.282;2023-08-17T03:36:08;14.20;99.90
51825;DHT22;37879;52.986;6.282;2023-08-17T03:38:34;14.20;99.90
51825;DHT22;37879;52.986;6.282;2023-08-17T03:40:59;14.20;99.90
51825;DHT22;37879;52.986;6.282;2023-08-17T03:43:25;14.30;99.90
51825;DHT22;37879;52.986;6.282;2023-08-17T03:45:52;14.20;99.90
51825;DHT22;37879;52.986;6.282;2023-08-17T03:48:18;14.20;99.90
51825;DHT22;37879;52.986;6.282;2023-08-17T03:50:43;14.20;99.90
51825;DHT22;37879;52.986;6.282;2023-08-17T03:53:09;14.20;99.90
51825;DHT22;37879;52.986;6.282;2023-08-17T03:55:35;14.20;99.90
51825;DHT22;37879;52.986;6.282;2023-08-17T03:58:00;14.20;99.90
51825;DHT22;37879;52.986;6.282;2023-08-17T04:00:26;14.20;99.90
51825;DHT22;37879;52.986;6.282;2023-08-17T04:02:51;14.20;99.90
51825;DHT22;37879;52.986;6.282;2023-08-17T04:05:17;14.20;99.90
51825;DHT22;37879;52.986;6.282;2023-08-17T04:07:43;14.40;99.90
51825;DHT22;37879;52.986;6.282;2023-08-17T04:10:08;14.20;99.90
51825;DHT22;37879;52.986;6.282;2023-08-17T04:12:34;14.20;99.90
51825;DHT22;37879;52.986;6.282;2023-08-17T04:15:00;14.20;99.90
51825;DHT22;37879;52.986;6.282;2023-08-17T04:17:26;14.20;99.90
51825;DHT22;37879;52.986;6.282;2023-08-17T04:19:51;14.20;99.90
51825;DHT22;37879;52.986;6.282;2023-08-17T04:22:18;14.20;99.90
51825;DHT22;37879;52.986;6.282;2023-08-17T04:24:43;14.20;99.90
51825;DHT22;37879;52.986;6.282;2023-08-17T04:27:09;14.20;99.90
51825;DHT22;37879;52.986;6.282;2023-08-17T04:29:35;14.10;99.90
51825;DHT22;37879;52.986;6.282;2023-08-17T04:32:01;14.10;99.90
51825;DHT22;37879;52.986;6.282;2023-08-17T04:34:27;14.10;99.90
51825;DHT22;37879;52.986;6.282;2023-08-17T04:36:52;14.20;99.90
51825;DHT22;37879;52.986;6.282;2023-08-17T04:39:18;14.20;99.90
51825;DHT22;37879;52.986;6.282;2023-08-17T04:41:44;14.20;99.90
51825;DHT22;37879;52.986;6.282;2023-08-17T04:44:09;14.20;99.90
51825;DHT22;37879;52.986;6.282;2023-08-17T04:46:35;14.30;99.90
51825;DHT22;37879;52.986;6.282;2023-08-17T04:49:01;14.30;99.90
51825;DHT22;37879;52.986;6.282;2023-08-17T04:51:27;14.40;99.90
51825;DHT22;37879;52.986;6.282;2023-08-17T04:53:53;14.40;99.90
51825;DHT22;37879;52.986;6.282;2023-08-17T04:56:19;14.40;99.90
51825;DHT22;37879;52.986;6.282;2023-08-17T04:58:44;14.50;99.90
51825;DHT22;37879;52.986;6.282;2023-08-17T05:01:10;14.60;99.90
51825;DHT22;37879;52.986;6.282;2023-08-17T05:03:36;14.60;99.90
51825;DHT22;37879;52.986;6.282;2023-08-17T05:06:01;14.70;99.90
51825;DHT22;37879;52.986;6.282;2023-08-17T05:08:27;14.70;99.90
51825;DHT22;37879;52.986;6.282;2023-08-17T05:10:53;14.80;99.90
51825;DHT22;37879;52.986;6.282;2023-08-17T05:13:19;14.90;99.90
51825;DHT22;37879;52.986;6.282;2023-08-17T05:15:45;14.90;99.90
51825;DHT22;37879;52.986;6.282;2023-08-17T05:18:10;15.00;99.90
51825;DHT22;37879;52.986;6.282;2023-08-17T05:20:36;15.00;99.90
51825;DHT22;37879;52.986;6.282;2023-08-17T05:23:02;15.10;99.90
51825;DHT22;37879;52.986;6.282;2023-08-17T05:25:27;15.10;99.90
51825;DHT22;37879;52.986;6.282;2023-08-17T05:27:55;15.20;99.90
51825;DHT22;37879;52.986;6.282;2023-08-17T05:30:21;15.30;99.90
51825;DHT22;37879;52.986;6.282;2023-08-17T05:32:47;15.30;99.90
51825;DHT22;37879;52.986;6.282;2023-08-17T05:35:12;15.30;99.90
51825;DHT22;37879;52.986;6.282;2023-08-17T05:37:38;15.40;99.90
51825;DHT22;37879;52.986;6.282;2023-08-17T05:40:04;15.50;99.90
51825;DHT22;37879;52.986;6.282;2023-08-17T05:42:30;15.50;99.90
51825;DHT22;37879;52.986;6.282;2023-08-17T05:44:56;15.60;99.90
51825;DHT22;37879;52.986;6.282;2023-08-17T05:47:22;15.60;99.90
51825;DHT22;37879;52.986;6.282;2023-08-17T05:49:48;15.60;99.90
51825;DHT22;37879;52.986;6.282;2023-08-17T05:52:13;15.90;99.90
51825;DHT22;37879;52.986;6.282;2023-08-17T05:54:39;15.70;99.90
51825;DHT22;37879;52.986;6.282;2023-08-17T05:57:05;15.70;99.90
51825;DHT22;37879;52.986;6.282;2023-08-17T05:59:30;15.70;99.90
51825;DHT22;37879;52.986;6.282;2023-08-17T06:01:56;15.80;99.90
51825;DHT22;37879;52.986;6.282;2023-08-17T06:04:22;15.90;99.90
51825;DHT22;37879;52.986;6.282;2023-08-17T06:06:47;15.90;99.90
51825;DHT22;37879;52.986;6.282;2023-08-17T06:09:13;15.90;99.90
51825;DHT22;37879;52.986;6.282;2023-08-17T06:11:40;16.00;99.90
51825;DHT22;37879;52.986;6.282;2023-08-17T06:14:05;16.00;99.90
51825;DHT22;37879;52.986;6.282;2023-08-17T06:16:31;16.10;99.90
51825;DHT22;37879;52.986;6.282;2023-08-17T06:18:57;16.10;99.90
51825;DHT22;37879;52.986;6.282;2023-08-17T06:21:23;16.20;99.90
51825;DHT22;37879;52.986;6.282;2023-08-17T06:23:49;16.30;99.90
51825;DHT22;37879;52.986;6.282;2023-08-17T06:26:14;16.40;99.90
51825;DHT22;37879;52.986;6.282;2023-08-17T06:28:40;16.50;99.90
51825;DHT22;37879;52.986;6.282;2023-08-17T06:31:06;16.60;99.90
51825;DHT22;37879;52.986;6.282;2023-08-17T06:33:32;16.70;99.90
51825;DHT22;37879;52.986;6.282;2023-08-17T06:35:58;16.80;99.90
51825;DHT22;37879;52.986;6.282;2023-08-17T06:38:23;16.80;99.90
51825;DHT22;37879;52.986;6.282;2023-08-17T06:40:51;16.90;99.90
51825;DHT22;37879;52.986;6.282;2023-08-17T06:43:18;16.90;99.90
51825;DHT22;37879;52.986;6.282;2023-08-17T06:45:44;16.90;99.90
51825;DHT22;37879;52.986;6.282;2023-08-17T06:48:09;16.90;99.90
51825;DHT22;37879;52.986;6.282;2023-08-17T06:50:35;16.90;99.90
51825;DHT22;37879;52.986;6.282;2023-08-17T06:53:02;16.90;99.90
51825;DHT22;37879;52.986;6.282;2023-08-17T06:55:28;17.00;99.90
51825;DHT22;37879;52.986;6.282;2023-08-17T06:57:53;17.00;99.90
51825;DHT22;37879;52.986;6.282;2023-08-17T07:00:20;17.10;99.90
51825;DHT22;37879;52.986;6.282;2023-08-17T07:02:47;16.90;99.90
51825;DHT22;37879;52.986;6.282;2023-08-17T07:05:14;16.80;99.90
51825;DHT22;37879;52.986;6.282;2023-08-17T07:07:40;16.70;99.90
51825;DHT22;37879;52.986;6.282;2023-08-17T07:10:08;16.70;99.90
51825;DHT22;37879;52.986;6.282;2023-08-17T07:12:33;16.70;99.90
51825;DHT22;37879;52.986;6.282;2023-08-17T07:14:59;16.70;99.90
51825;DHT22;37879;52.986;6.282;2023-08-17T07:17:25;16.70;99.90
51825;DHT22;37879;52.986;6.282;2023-08-17T07:19:50;16.60;99.90
51825;DHT22;37879;52.986;6.282;2023-08-17T07:22:16;16.70;99.90
51825;DHT22;37879;52.986;6.282;2023-08-17T07:24:44;16.70;99.90
51825;DHT22;37879;52.986;6.282;2023-08-17T07:27:10;16.70;99.90
51825;DHT22;37879;52.986;6.282;2023-08-17T07:29:36;16.70;99.90
51825;DHT22;37879;52.986;6.282;2023-08-17T07:32:02;16.80;99.90
51825;DHT22;37879;52.986;6.282;2023-08-17T07:34:28;16.90;99.90
51825;DHT22;37879;52.986;6.282;2023-08-17T07:36:56;16.90;99.90
51825;DHT22;37879;52.986;6.282;2023-08-17T07:39:22;17.00;99.90
51825;DHT22;37879;52.986;6.282;2023-08-17T07:41:48;17.10;99.90
51825;DHT22;37879;52.986;6.282;2023-08-17T07:44:14;17.20;99.90
51825;DHT22;37879;52.986;6.282;2023-08-17T07:46:40;17.30;99.90
51825;DHT22;37879;52.986;6.282;2023-08-17T07:49:06;17.30;99.90
51825;DHT22;37879;52.986;6.282;2023-08-17T07:51:32;17.40;99.90
51825;DHT22;37879;52.986;6.282;2023-08-17T07:54:00;16.70;99.90
51825;DHT22;37879;52.986;6.282;2023-08-17T07:56:25;17.60;99.90
51825;DHT22;37879;52.986;6.282;2023-08-17T07:58:53;18.50;99.90
51825;DHT22;37879;52.986;6.282;2023-08-17T08:01:18;17.90;99.90
51825;DHT22;37879;52.986;6.282;2023-08-17T08:03:44;18.10;99.90
51825;DHT22;37879;52.986;6.282;2023-08-17T08:06:10;18.20;99.90
51825;DHT22;37879;52.986;6.282;2023-08-17T08:08:35;18.30;99.90
51825;DHT22;37879;52.986;6.282;2023-08-17T08:11:01;18.40;99.90
51825;DHT22;37879;52.986;6.282;2023-08-17T08:13:27;18.60;99.90
51825;DHT22;37879;52.986;6.282;2023-08-17T08:15:52;18.70;99.90
51825;DHT22;37879;52.986;6.282;2023-08-17T08:18:18;18.80;99.90
51825;DHT22;37879;52.986;6.282;2023-08-17T08:20:44;18.80;99.90
51825;DHT22;37879;52.986;6.282;2023-08-17T08:23:09;18.60;99.90
51825;DHT22;37879;52.986;6.282;2023-08-17T08:25:35;18.50;99.90
51825;DHT22;37879;52.986;6.282;2023-08-17T08:28:01;18.40;99.90
51825;DHT22;37879;52.986;6.282;2023-08-17T08:30:26;18.20;99.90
51825;DHT22;37879;52.986;6.282;2023-08-17T08:32:52;18.10;99.90
51825;DHT22;37879;52.986;6.282;2023-08-17T08:35:17;18.20;99.90
51825;DHT22;37879;52.986;6.282;2023-08-17T08:37:43;18.10;99.90
51825;DHT22;37879;52.986;6.282;2023-08-17T08:40:12;18.20;99.90
51825;DHT22;37879;52.986;6.282;2023-08-17T08:42:41;18.30;99.90
51825;DHT22;37879;52.986;6.282;2023-08-17T08:45:07;18.30;99.90
51825;DHT22;37879;52.986;6.282;2023-08-17T08:47:34;18.40;99.90
51825;DHT22;37879;52.986;6.282;2023-08-17T08:50:04;18.60;99.90
51825;DHT22;37879;52.986;6.282;2023-08-17T08:52:35;18.70;99.90
51825;DHT22;37879;52.986;6.282;2023-08-17T08:55:19;18.90;99.90
51825;DHT22;37879;52.986;6.282;2023-08-17T08:57:46;19.00;99.90
51825;DHT22;37879;52.986;6.282;2023-08-17T09:00:13;19.00;99.90
51825;DHT22;37879;52.986;6.282;2023-08-17T09:02:39;19.00;99.90
51825;DHT22;37879;52.986;6.282;2023-08-17T09:05:06;19.10;99.90
51825;DHT22;37879;52.986;6.282;2023-08-17T09:07:34;19.00;99.90
51825;DHT22;37879;52.986;6.282;2023-08-17T09:10:02;19.00;99.90
51825;DHT22;37879;52.986;6.282;2023-08-17T09:12:29;18.90;99.90
51825;DHT22;37879;52.986;6.282;2023-08-17T09:14:56;18.80;99.90
51825;DHT22;37879;52.986;6.282;2023-08-17T09:17:25;19.00;99.90
51825;DHT22;37879;52.986;6.282;2023-08-17T09:19:51;19.00;99.90
51825;DHT22;37879;52.986;6.282;2023-08-17T09:25:02;19.10;99.90
51825;DHT22;37879;52.986;6.282;2023-08-17T09:27:28;19.20;99.90
51825;DHT22;37879;52.986;6.282;2023-08-17T09:30:02;19.20;99.90
51825;DHT22;37879;52.986;6.282;2023-08-17T09:32:33;19.30;99.90
51825;DHT22;37879;52.986;6.282;2023-08-17T09:35:06;19.30;99.90
51825;DHT22;37879;52.986;6.282;2023-08-17T09:37:32;19.30;99.90
51825;DHT22;37879;52.986;6.282;2023-08-17T09:39:58;19.30;99.90
51825;DHT22;37879;52.986;6.282;2023-08-17T09:42:24;19.40;99.90
51825;DHT22;37879;52.986;6.282;2023-08-17T09:44:54;19.40;99.90
51825;DHT22;37879;52.986;6.282;2023-08-17T09:47:21;19.50;99.90
51825;DHT22;37879;52.986;6.282;2023-08-17T09:49:49;19.60;99.90
51825;DHT22;37879;52.986;6.282;2023-08-17T09:52:15;19.60;99.90
51825;DHT22;37879;52.986;6.282;2023-08-17T09:54:41;19.70;99.90
51825;DHT22;37879;52.986;6.282;2023-08-17T09:57:08;19.60;99.90
51825;DHT22;37879;52.986;6.282;2023-08-17T09:59:34;19.60;99.90
51825;DHT22;37879;52.986;6.282;2023-08-17T10:02:00;19.60;99.90
51825;DHT22;37879;52.986;6.282;2023-08-17T10:04:28;19.60;99.90
51825;DHT22;37879;52.986;6.282;2023-08-17T10:07:00;19.70;99.90
51825;DHT22;37879;52.986;6.282;2023-08-17T10:09:39;19.70;99.90
51825;DHT22;37879;52.986;6.282;2023-08-17T10:12:10;19.60;99.90
51825;DHT22;37879;52.986;6.282;2023-08-17T10:14:42;19.50;99.90
51825;DHT22;37879;52.986;6.282;2023-08-17T10:17:16;19.50;99.90
51825;DHT22;37879;52.986;6.282;2023-08-17T10:19:54;19.60;99.90
51825;DHT22;37879;52.986;6.282;2023-08-17T10:22:26;19.80;99.90
51825;DHT22;37879;52.986;6.282;2023-08-17T10:24:56;19.90;99.90
51825;DHT22;37879;52.986;6.282;2023-08-17T10:27:24;20.00;99.90
51825;DHT22;37879;52.986;6.282;2023-08-17T10:29:51;20.10;99.90
51825;DHT22;37879;52.986;6.282;2023-08-17T10:32:17;20.20;99.90
51825;DHT22;37879;52.986;6.282;2023-08-17T10:34:42;20.20;99.90
51825;DHT22;37879;52.986;6.282;2023-08-17T10:37:09;20.10;99.90
51825;DHT22;37879;52.986;6.282;2023-08-17T10:39:35;20.10;99.90
51825;DHT22;37879;52.986;6.282;2023-08-17T10:42:04;20.00;99.90
51825;DHT22;37879;52.986;6.282;2023-08-17T10:44:46;19.90;99.90
51825;DHT22;37879;52.986;6.282;2023-08-17T10:49:45;20.00;99.90
51825;DHT22;37879;52.986;6.282;2023-08-17T10:52:13;20.00;99.90
51825;DHT22;37879;52.986;6.282;2023-08-17T10:54:39;20.10;99.90
51825;DHT22;37879;52.986;6.282;2023-08-17T10:57:38;20.10;99.90
51825;DHT22;37879;52.986;6.282;2023-08-17T11:00:21;20.20;99.90
51825;DHT22;37879;52.986;6.282;2023-08-17T11:02:57;20.30;99.90
51825;DHT22;37879;52.986;6.282;2023-08-17T11:08:39;20.40;99.90
51825;DHT22;37879;52.986;6.282;2023-08-17T11:11:14;20.30;99.90
51825;DHT22;37879;52.986;6.282;2023-08-17T11:13:41;20.30;99.90
51825;DHT22;37879;52.986;6.282;2023-08-17T11:16:08;20.20;99.90
51825;DHT22;37879;52.986;6.282;2023-08-17T11:18:34;20.10;99.90
51825;DHT22;37879;52.986;6.282;2023-08-17T11:21:02;20.20;99.90
51825;DHT22;37879;52.986;6.282;2023-08-17T11:23:30;20.20;99.90
51825;DHT22;37879;52.986;6.282;2023-08-17T11:25:56;20.20;99.90
51825;DHT22;37879;52.986;6.282;2023-08-17T11:28:23;20.20;99.90
51825;DHT22;37879;52.986;6.282;2023-08-17T11:31:03;20.20;99.90
51825;DHT22;37879;52.986;6.282;2023-08-17T11:33:30;20.20;99.90
51825;DHT22;37879;52.986;6.282;2023-08-17T11:35:57;20.30;99.90
51825;DHT22;37879;52.986;6.282;2023-08-17T11:38:24;20.30;99.90
51825;DHT22;37879;52.986;6.282;2023-08-17T11:40:50;20.30;99.90
51825;DHT22;37879;52.986;6.282;2023-08-17T11:43:16;20.30;99.90
51825;DHT22;37879;52.986;6.282;2023-08-17T11:45:43;20.40;99.90
51825;DHT22;37879;52.986;6.282;2023-08-17T11:48:09;20.50;99.90
51825;DHT22;37879;52.986;6.282;2023-08-17T11:50:35;20.50;99.90
51825;DHT22;37879;52.986;6.282;2023-08-17T11:53:01;20.60;99.90
51825;DHT22;37879;52.986;6.282;2023-08-17T11:55:27;20.60;99.90
51825;DHT22;37879;52.986;6.282;2023-08-17T11:57:53;20.70;99.90
51825;DHT22;37879;52.986;6.282;2023-08-17T12:00:20;20.70;99.90
51825;DHT22;37879;52.986;6.282;2023-08-17T12:02:50;20.70;99.90
51825;DHT22;37879;52.986;6.282;2023-08-17T12:05:23;20.60;99.90
51825;DHT22;37879;52.986;6.282;2023-08-17T12:07:55;20.60;99.90
51825;DHT22;37879;52.986;6.282;2023-08-17T12:10:21;20.70;99.90
51825;DHT22;37879;52.986;6.282;2023-08-17T12:12:48;20.70;99.90
51825;DHT22;37879;52.986;6.282;2023-08-17T12:15:16;20.70;99.90
51825;DHT22;37879;52.986;6.282;2023-08-17T12:17:46;20.60;99.90
51825;DHT22;37879;52.986;6.282;2023-08-17T12:20:17;20.70;99.90
51825;DHT22;37879;52.986;6.282;2023-08-17T12:22:43;20.80;99.90
51825;DHT22;37879;52.986;6.282;2023-08-17T12:25:09;20.90;99.90
51825;DHT22;37879;52.986;6.282;2023-08-17T12:27:36;20.90;99.90
51825;DHT22;37879;52.986;6.282;2023-08-17T12:30:01;21.00;99.90
51825;DHT22;37879;52.986;6.282;2023-08-17T12:32:27;21.00;99.90
51825;DHT22;37879;52.986;6.282;2023-08-17T12:34:53;21.00;99.90
51825;DHT22;37879;52.986;6.282;2023-08-17T12:37:19;21.00;99.90
51825;DHT22;37879;52.986;6.282;2023-08-17T12:39:46;21.00;99.90
51825;DHT22;37879;52.986;6.282;2023-08-17T12:42:13;20.90;99.90
51825;DHT22;37879;52.986;6.282;2023-08-17T12:44:39;20.90;99.90
51825;DHT22;37879;52.986;6.282;2023-08-17T12:47:05;20.80;99.90
51825;DHT22;37879;52.986;6.282;2023-08-17T12:49:30;20.70;99.90
51825;DHT22;37879;52.986;6.282;2023-08-17T12:51:56;20.70;99.90
51825;DHT22;37879;52.986;6.282;2023-08-17T12:54:22;20.70;99.90
51825;DHT22;37879;52.986;6.282;2023-08-17T12:56:47;20.70;99.90
51825;DHT22;37879;52.986;6.282;2023-08-17T12:59:13;20.70;99.90
51825;DHT22;37879;52.986;6.282;2023-08-17T13:01:39;20.60;99.90
51825;DHT22;37879;52.986;6.282;2023-08-17T13:04:05;20.70;99.90
51825;DHT22;37879;52.986;6.282;2023-08-17T13:06:32;20.60;99.90
51825;DHT22;37879;52.986;6.282;2023-08-17T13:08:57;20.60;99.90
51825;DHT22;37879;52.986;6.282;2023-08-17T13:11:23;20.60;99.90
51825;DHT22;37879;52.986;6.282;2023-08-17T13:13:48;20.60;99.90
51825;DHT22;37879;52.986;6.282;2023-08-17T13:16:14;20.50;99.90
51825;DHT22;37879;52.986;6.282;2023-08-17T13:18:40;20.50;99.90
51825;DHT22;37879;52.986;6.282;2023-08-17T13:21:06;20.60;99.90
51825;DHT22;37879;52.986;6.282;2023-08-17T13:23:31;20.50;99.90
51825;DHT22;37879;52.986;6.282;2023-08-17T13:25:58;20.60;99.90
51825;DHT22;37879;52.986;6.282;2023-08-17T13:28:23;20.60;99.90
51825;DHT22;37879;52.986;6.282;2023-08-17T13:30:49;20.70;99.90
51825;DHT22;37879;52.986;6.282;2023-08-17T13:33:15;20.80;99.90
51825;DHT22;37879;52.986;6.282;2023-08-17T13:35:42;20.90;99.90
51825;DHT22;37879;52.986;6.282;2023-08-17T13:38:07;21.00;99.90
51825;DHT22;37879;52.986;6.282;2023-08-17T13:40:33;20.90;99.90
51825;DHT22;37879;52.986;6.282;2023-08-17T13:42:59;20.90;99.90
51825;DHT22;37879;52.986;6.282;2023-08-17T13:45:26;20.80;99.90
51825;DHT22;37879;52.986;6.282;2023-08-17T13:47:52;20.80;99.90
51825;DHT22;37879;52.986;6.282;2023-08-17T13:50:18;20.90;99.90
51825;DHT22;37879;52.986;6.282;2023-08-17T13:52:44;20.90;99.90
51825;DHT22;37879;52.986;6.282;2023-08-17T13:55:10;20.80;99.90
51825;DHT22;37879;52.986;6.282;2023-08-17T13:57:36;20.70;99.90
51825;DHT22;37879;52.986;6.282;2023-08-17T14:00:02;20.70;99.90
51825;DHT22;37879;52.986;6.282;2023-08-17T14:02:29;20.60;99.90
51825;DHT22;37879;52.986;6.282;2023-08-17T14:04:55;20.60;99.90
51825;DHT22;37879;52.986;6.282;2023-08-17T14:07:21;20.60;99.90
51825;DHT22;37879;52.986;6.282;2023-08-17T14:09:46;20.50;99.90
51825;DHT22;37879;52.986;6.282;2023-08-17T14:12:12;20.60;99.90
51825;DHT22;37879;52.986;6.282;2023-08-17T14:14:38;20.60;99.90
51825;DHT22;37879;52.986;6.282;2023-08-17T14:17:04;20.50;99.90
51825;DHT22;37879;52.986;6.282;2023-08-17T14:19:29;20.50;99.90
51825;DHT22;37879;52.986;6.282;2023-08-17T14:21:56;20.50;99.90
51825;DHT22;37879;52.986;6.282;2023-08-17T14:24:21;20.50;99.90
51825;DHT22;37879;52.986;6.282;2023-08-17T14:26:47;20.60;99.90
51825;DHT22;37879;52.986;6.282;2023-08-17T14:29:13;20.50;99.90
51825;DHT22;37879;52.986;6.282;2023-08-17T14:31:39;20.40;99.90
51825;DHT22;37879;52.986;6.282;2023-08-17T14:34:04;20.40;99.90
51825;DHT22;37879;52.986;6.282;2023-08-17T14:36:30;20.30;99.90
51825;DHT22;37879;52.986;6.282;2023-08-17T14:38:55;20.30;99.90
51825;DHT22;37879;52.986;6.282;2023-08-17T14:41:21;20.30;99.90
51825;DHT22;37879;52.986;6.282;2023-08-17T14:43:47;20.50;99.90
51825;DHT22;37879;52.986;6.282;2023-08-17T14:46:12;20.50;99.90
51825;DHT22;37879;52.986;6.282;2023-08-17T14:48:38;20.50;99.90
51825;DHT22;37879;52.986;6.282;2023-08-17T14:51:04;20.50;99.90
51825;DHT22;37879;52.986;6.282;2023-08-17T14:53:30;20.60;99.90
51825;DHT22;37879;52.986;6.282;2023-08-17T14:55:56;20.70;99.90
51825;DHT22;37879;52.986;6.282;2023-08-17T14:58:21;20.70;99.90
51825;DHT22;37879;52.986;6.282;2023-08-17T15:00:47;20.70;99.90
51825;DHT22;37879;52.986;6.282;2023-08-17T15:03:13;20.70;99.90
51825;DHT22;37879;52.986;6.282;2023-08-17T15:05:38;20.60;99.90
51825;DHT22;37879;52.986;6.282;2023-08-17T15:08:04;20.60;99.90
51825;DHT22;37879;52.986;6.282;2023-08-17T15:10:30;20.60;99.90
51825;DHT22;37879;52.986;6.282;2023-08-17T15:12:58;20.50;99.90
51825;DHT22;37879;52.986;6.282;2023-08-17T15:15:23;20.40;99.90
51825;DHT22;37879;52.986;6.282;2023-08-17T15:17:49;20.20;99.90
51825;DHT22;37879;52.986;6.282;2023-08-17T15:20:14;20.20;99.90
51825;DHT22;37879;52.986;6.282;2023-08-17T15:22:40;20.20;99.90
51825;DHT22;37879;52.986;6.282;2023-08-17T15:25:06;20.10;99.90
51825;DHT22;37879;52.986;6.282;2023-08-17T15:27:32;20.10;99.90
51825;DHT22;37879;52.986;6.282;2023-08-17T15:29:57;20.10;99.90
51825;DHT22;37879;52.986;6.282;2023-08-17T15:32:23;20.00;99.90
51825;DHT22;37879;52.986;6.282;2023-08-17T15:34:48;19.90;99.90